Uvalde Research's Hourly Summary for Thursday, May 10, 2018
Hour Temp
(f)
RH
(%)
Solar Rad.
(MJ/m2)
Rainfall
(in)
Wind
(mph)
5/10/2018 12:00 AM 72 75 0 0 3.1
5/10/2018 1:00 AM 70 81 0 0 3.08
5/10/2018 2:00 AM 68 85 0 0 2.38
5/10/2018 3:00 AM 66 90 0 0 1.87
5/10/2018 4:00 AM 65 93 0 0 0.21
5/10/2018 5:00 AM 65 95 0 0 1.62
5/10/2018 6:00 AM 65 96 0 0 0.46
5/10/2018 7:00 AM 65 97 0.1 0 2.12
5/10/2018 8:00 AM 67 95 0.42 0 3.42
5/10/2018 9:00 AM 71 85 1.34 0 4.26
5/10/2018 10:00 AM 75 73 2.15 0 4.46
5/10/2018 11:00 AM 78 60 2.59 0 4.4
5/10/2018 12:00 PM 81 51 2.96 0 4.71
5/10/2018 1:00 PM 83 44 3.07 0 4.91
5/10/2018 2:00 PM 85 40 2.98 0 4.89
5/10/2018 3:00 PM 86 36 2.71 0 5.08
5/10/2018 4:00 PM 87 33 2.25 0 4.99
5/10/2018 5:00 PM 88 32 1.67 0 4.97
5/10/2018 6:00 PM 87 33 1 0 4.83
5/10/2018 7:00 PM 86 33 0.34 0 4.16
5/10/2018 8:00 PM 81 41 0.01 0 1.78
5/10/2018 9:00 PM 77 49 0 0 1.86
5/10/2018 10:00 PM 74 56 0 0 3.14
5/10/2018 11:00 PM 73 64 0 0 3.81
Data Summary 75 64 23.59 0.00 3.35